createdAt,value
2018-01-12T00:00:34.277Z,6.31
2018-01-12T00:01:33.968Z,6.31
2018-01-12T00:02:32.974Z,6.31
2018-01-12T00:03:33.861Z,6.3
2018-01-12T00:04:33.343Z,6.3
2018-01-12T00:05:32.578Z,6.33
2018-01-12T00:06:32.935Z,6.31
2018-01-12T00:07:32.439Z,6.31
2018-01-12T00:08:32.754Z,6.27
2018-01-12T00:09:33.185Z,6.3
2018-01-12T00:10:32.719Z,6.28
2018-01-12T00:11:33.264Z,6.3
2018-01-12T00:12:32.661Z,6.27
2018-01-12T00:13:33.227Z,6.25
2018-01-12T00:14:33.808Z,6.25
2018-01-12T00:15:33.076Z,6.24
2018-01-12T00:16:33.496Z,6.21
2018-01-12T00:17:32.713Z,6.21
2018-01-12T00:18:33.038Z,6.25
2018-01-12T00:19:33.354Z,6.25
2018-01-12T00:20:32.828Z,6.27
2018-01-12T00:21:33.050Z,6.26
2018-01-12T00:22:33.323Z,6.24
2018-01-12T00:23:32.993Z,6.26
2018-01-12T00:24:33.698Z,6.24
2018-01-12T00:25:32.946Z,6.26
2018-01-12T00:26:33.403Z,6.27
2018-01-12T00:27:32.569Z,6.28
2018-01-12T00:28:32.905Z,6.27
2018-01-12T00:29:33.356Z,6.27
2018-01-12T00:30:32.894Z,6.25
2018-01-12T00:31:33.248Z,6.24
2018-01-12T00:32:33.407Z,6.24
2018-01-12T00:33:32.823Z,6.21
2018-01-12T00:34:33.523Z,6.24
2018-01-12T00:35:33.037Z,6.23
2018-01-12T00:36:33.268Z,6.2
2018-01-12T00:37:32.650Z,6.2
2018-01-12T00:38:33.665Z,6.21
2018-01-12T00:39:33.018Z,6.2
2018-01-12T00:40:33.328Z,6.19
2018-01-12T00:41:32.708Z,6.18
2018-01-12T00:42:32.990Z,6.19
2018-01-12T00:43:33.211Z,6.17
2018-01-12T00:44:32.526Z,6.14
2018-01-12T00:45:32.736Z,6.16
2018-01-12T00:46:33.174Z,6.12
2018-01-12T00:47:32.547Z,6.13
2018-01-12T00:48:32.699Z,6.13
2018-01-12T00:49:32.924Z,6.14
2018-01-12T00:50:33.294Z,6.13
2018-01-12T00:51:32.554Z,6.14
2018-01-12T00:52:32.828Z,6.07
2018-01-12T00:53:33.139Z,6.11
2018-01-12T00:54:32.484Z,6.09
2018-01-12T00:55:32.919Z,6.13
2018-01-12T00:56:33.403Z,6.13
2018-01-12T00:57:32.823Z,6.13
2018-01-12T00:58:33.155Z,6.13
2018-01-12T00:59:32.611Z,6.14
2018-01-12T01:00:32.922Z,6.13
2018-01-12T01:01:33.360Z,6.1
2018-01-12T01:02:32.732Z,6.08
2018-01-12T01:03:33.020Z,6.11
2018-01-12T01:04:33.373Z,6.09
2018-01-12T01:05:32.831Z,6.13
2018-01-12T01:06:33.167Z,6.11
2018-01-12T01:07:32.545Z,6.07
2018-01-12T01:08:32.739Z,6.08
2018-01-12T01:09:34.345Z,6.06
2018-01-12T01:10:32.685Z,6.02
2018-01-12T01:11:33.930Z,6.01
2018-01-12T01:12:32.404Z,6.01
2018-01-12T01:13:32.921Z,6
2018-01-12T01:14:32.303Z,6.01
2018-01-12T01:15:32.669Z,6.02
2018-01-12T01:16:32.285Z,6.01
2018-01-12T01:17:32.417Z,5.99
2018-01-12T01:18:32.639Z,5.96
2018-01-12T01:19:33.614Z,5.96
2018-01-12T01:20:33.001Z,5.97
2018-01-12T01:21:32.155Z,6
2018-01-12T01:22:32.537Z,6
2018-01-12T01:23:32.716Z,6.01
2018-01-12T01:24:32.072Z,6.02
2018-01-12T01:25:32.366Z,6.01
2018-01-12T01:26:32.793Z,6
2018-01-12T01:27:32.410Z,6.04
2018-01-12T01:28:32.642Z,6.02
2018-01-12T01:29:32.986Z,6.02
2018-01-12T01:30:32.290Z,5.98
2018-01-12T01:31:32.570Z,5.97
2018-01-12T01:32:33.089Z,5.97
2018-01-12T01:33:32.398Z,5.95
2018-01-12T01:34:32.945Z,5.93
2018-01-12T01:35:32.139Z,5.91
2018-01-12T01:36:33.068Z,5.92
2018-01-12T01:37:32.495Z,5.88
2018-01-12T01:38:32.106Z,5.85
2018-01-12T01:39:32.402Z,5.85
2018-01-12T01:40:32.753Z,5.87
2018-01-12T01:41:32.177Z,5.88
2018-01-12T01:42:32.468Z,5.9
2018-01-12T01:43:32.632Z,5.89
2018-01-12T01:44:32.921Z,5.89
2018-01-12T01:45:33.054Z,5.9
2018-01-12T01:46:33.286Z,5.85
2018-01-12T01:47:32.694Z,5.88
2018-01-12T01:48:33.156Z,5.9
2018-01-12T01:49:32.815Z,5.89
2018-01-12T01:50:33.243Z,5.83
2018-01-12T01:51:32.552Z,5.79
2018-01-12T01:52:32.888Z,5.83
2018-01-12T01:53:33.242Z,5.8
2018-01-12T01:55:33.604Z,5.81
2018-01-12T01:56:32.802Z,5.78
2018-01-12T01:57:33.288Z,5.71
2018-01-12T01:58:32.622Z,5.7
2018-01-12T01:59:32.961Z,5.7
2018-01-12T02:00:33.432Z,5.71
2018-01-12T02:01:32.590Z,5.69
2018-01-12T02:02:33.018Z,5.68
2018-01-12T02:03:33.497Z,5.68
2018-01-12T02:04:32.975Z,5.68
2018-01-12T02:05:33.171Z,5.68
2018-01-12T02:06:34.151Z,5.69
2018-01-12T02:07:33.323Z,5.65
2018-01-12T02:08:32.630Z,5.68
2018-01-12T02:09:33.118Z,5.67
2018-01-12T02:10:33.422Z,5.66
2018-01-12T02:11:33.032Z,5.65
2018-01-12T02:12:33.200Z,5.62
2018-01-12T02:13:32.477Z,5.62
2018-01-12T02:14:32.925Z,5.63
2018-01-12T02:15:33.223Z,5.61
2018-01-12T02:16:32.529Z,5.61
2018-01-12T02:17:32.725Z,5.59
2018-01-12T02:18:32.913Z,5.57
2018-01-12T02:19:33.367Z,5.57
2018-01-12T02:20:32.835Z,5.52
2018-01-12T02:21:33.352Z,5.54
2018-01-12T02:22:32.953Z,5.57
2018-01-12T02:23:33.305Z,5.57
2018-01-12T02:24:32.736Z,5.55
2018-01-12T02:25:33.244Z,5.58
2018-01-12T02:26:32.787Z,5.58
2018-01-12T02:27:33.216Z,5.59
2018-01-12T02:28:32.919Z,5.59
2018-01-12T02:29:33.339Z,5.59
2018-01-12T02:30:33.325Z,5.57
2018-01-12T02:31:32.770Z,5.59
2018-01-12T02:32:33.255Z,5.6
2018-01-12T02:33:32.902Z,5.58
2018-01-12T02:34:33.540Z,5.57
2018-01-12T02:35:32.991Z,5.57
2018-01-12T02:36:33.501Z,5.53
2018-01-12T02:37:32.775Z,5.57
2018-01-12T02:38:33.298Z,5.52
2018-01-12T02:39:32.809Z,5.53
2018-01-12T02:40:33.126Z,5.56
2018-01-12T02:41:32.738Z,5.57
2018-01-12T02:42:33.208Z,5.57
2018-01-12T02:43:32.526Z,5.55
2018-01-12T02:44:33.144Z,5.56
2018-01-12T02:45:33.602Z,5.55
2018-01-12T02:46:33.159Z,5.52
2018-01-12T02:47:33.719Z,5.5
2018-01-12T02:48:33.224Z,5.5
2018-01-12T02:49:33.711Z,5.54
2018-01-12T02:50:32.870Z,5.53
2018-01-12T02:51:33.315Z,5.55
2018-01-12T02:52:32.746Z,5.53
2018-01-12T02:53:32.983Z,5.51
2018-01-12T02:54:33.514Z,5.53
2018-01-12T02:55:33.167Z,5.52
2018-01-12T02:56:33.322Z,5.53
2018-01-12T02:57:32.632Z,5.51
2018-01-12T02:58:33.081Z,5.48
2018-01-12T02:59:33.484Z,5.5
2018-01-12T03:00:32.983Z,5.51
2018-01-12T03:01:33.715Z,5.51
2018-01-12T03:02:33.119Z,5.51
2018-01-12T03:03:33.412Z,5.52
2018-01-12T03:04:32.888Z,5.51
2018-01-12T03:05:33.446Z,5.55
2018-01-12T03:06:33.240Z,5.54
2018-01-12T03:07:33.032Z,5.55
2018-01-12T03:08:33.436Z,5.51
2018-01-12T03:09:32.840Z,5.49
2018-01-12T03:10:33.034Z,5.48
2018-01-12T03:11:33.437Z,5.46
2018-01-12T03:12:32.976Z,5.43
2018-01-12T03:13:33.326Z,5.41
2018-01-12T03:14:32.558Z,5.4
2018-01-12T03:15:32.990Z,5.41
2018-01-12T03:16:33.276Z,5.43
2018-01-12T03:17:32.898Z,5.44
2018-01-12T03:18:33.322Z,5.4
2018-01-12T03:19:32.817Z,5.4
2018-01-12T03:20:33.324Z,5.45
2018-01-12T03:21:32.779Z,5.45
2018-01-12T03:22:33.388Z,5.44
2018-01-12T03:23:32.586Z,5.45
2018-01-12T03:24:33.132Z,5.45
2018-01-12T03:25:32.535Z,5.43
2018-01-12T03:26:32.833Z,5.45
2018-01-12T03:27:33.345Z,5.44
2018-01-12T03:28:32.981Z,5.44
2018-01-12T03:29:32.507Z,5.41
2018-01-12T03:30:32.856Z,5.39
2018-01-12T03:31:33.222Z,5.39
2018-01-12T03:32:33.668Z,5.39
2018-01-12T03:33:33.012Z,5.4
2018-01-12T03:34:33.268Z,5.4
2018-01-12T03:35:32.701Z,5.39
2018-01-12T03:36:33.291Z,5.4
2018-01-12T03:37:32.538Z,5.37
2018-01-12T03:38:32.664Z,5.39
2018-01-12T03:39:33.129Z,5.4
2018-01-12T03:40:32.431Z,5.37
2018-01-12T03:41:32.889Z,5.38
2018-01-12T03:42:33.456Z,5.42
2018-01-12T03:43:32.644Z,5.4
2018-01-12T03:44:33.243Z,5.42
2018-01-12T03:45:32.414Z,5.37
2018-01-12T03:46:32.653Z,5.39
2018-01-12T03:47:32.038Z,5.38
2018-01-12T03:48:32.272Z,5.4
2018-01-12T03:49:32.662Z,5.39
2018-01-12T03:50:32.183Z,5.41
2018-01-12T03:51:32.791Z,5.42
2018-01-12T03:52:32.236Z,5.39
2018-01-12T03:53:32.612Z,5.42
2018-01-12T03:54:32.830Z,5.38
2018-01-12T03:55:32.255Z,5.36
2018-01-12T03:56:32.775Z,5.36
2018-01-12T03:57:32.169Z,5.34
2018-01-12T03:58:32.326Z,5.37
2018-01-12T03:59:32.640Z,5.35
2018-01-12T04:00:31.841Z,5.4
2018-01-12T04:01:32.393Z,5.39
2018-01-12T04:02:32.854Z,5.42
2018-01-12T04:03:32.272Z,5.38
2018-01-12T04:04:32.791Z,5.39
2018-01-12T04:05:32.334Z,5.35
2018-01-12T04:06:32.574Z,5.32
2018-01-12T04:07:32.913Z,5.32
2018-01-12T04:08:32.363Z,5.33
2018-01-12T04:09:32.616Z,5.31
2018-01-12T04:10:32.982Z,5.32
2018-01-12T04:11:33.042Z,5.31
2018-01-12T04:12:32.434Z,5.29
2018-01-12T04:13:32.943Z,5.32
2018-01-12T04:14:32.233Z,5.33
2018-01-12T04:15:32.722Z,5.33
2018-01-12T04:16:33.180Z,5.27
2018-01-12T04:17:33.453Z,5.27
2018-01-12T04:18:32.887Z,5.28
2018-01-12T04:19:33.152Z,5.26
2018-01-12T04:20:33.515Z,5.27
2018-01-12T04:21:32.856Z,5.29
2018-01-12T04:22:33.300Z,5.32
2018-01-12T04:23:32.724Z,5.3
2018-01-12T04:24:33.070Z,5.29
2018-01-12T04:25:33.277Z,5.31
2018-01-12T04:26:32.556Z,5.33
2018-01-12T04:27:32.727Z,5.33
2018-01-12T04:28:32.851Z,5.34
2018-01-12T04:29:33.359Z,5.33
2018-01-12T04:30:32.750Z,5.31
2018-01-12T04:31:32.962Z,5.29
2018-01-12T04:32:33.318Z,5.29
2018-01-12T04:33:33.532Z,5.31
2018-01-12T04:34:32.783Z,5.27
2018-01-12T04:35:32.859Z,5.3
2018-01-12T04:36:33.045Z,5.28
2018-01-12T04:37:33.286Z,5.26
2018-01-12T04:38:32.509Z,5.27
2018-01-12T04:39:32.813Z,5.27
2018-01-12T04:40:33.013Z,5.28
2018-01-12T04:41:33.323Z,5.26
2018-01-12T04:42:32.530Z,5.28
2018-01-12T04:43:32.708Z,5.29
2018-01-12T04:44:33.196Z,5.3
2018-01-12T04:45:33.573Z,5.28
2018-01-12T04:46:32.902Z,5.29
2018-01-12T04:47:33.251Z,5.25
2018-01-12T04:48:33.360Z,5.26
2018-01-12T04:49:32.818Z,5.27
2018-01-12T04:50:33.334Z,5.25
2018-01-12T04:51:32.888Z,5.25
2018-01-12T04:52:33.316Z,5.25
2018-01-12T04:53:32.839Z,5.23
2018-01-12T04:54:33.082Z,5.26
2018-01-12T04:55:33.713Z,5.25
2018-01-12T04:56:33.239Z,5.24
2018-01-12T04:57:33.833Z,5.24
2018-01-12T04:58:33.290Z,5.22
2018-01-12T04:59:32.797Z,5.24
2018-01-12T05:00:33.390Z,5.21
2018-01-12T05:01:32.871Z,5.24
2018-01-12T05:02:33.456Z,5.25
2018-01-12T05:03:33.010Z,5.24
2018-01-12T05:04:33.550Z,5.2
2018-01-12T05:05:33.289Z,5.21
2018-01-12T05:06:32.784Z,5.23
2018-01-12T05:07:33.318Z,5.2
2018-01-12T05:08:32.901Z,5.21
2018-01-12T05:09:33.884Z,5.2
2018-01-12T05:10:33.468Z,5.19
2018-01-12T05:11:33.038Z,5.16
2018-01-12T05:12:33.604Z,5.16
2018-01-12T05:13:33.141Z,5.13
2018-01-12T05:14:33.698Z,5.13
2018-01-12T05:15:33.236Z,5.13
2018-01-12T05:16:33.008Z,5.14
2018-01-12T05:17:33.465Z,5.11
2018-01-12T05:18:32.920Z,5.16
2018-01-12T05:19:33.635Z,5.16
2018-01-12T05:20:33.130Z,5.16
2018-01-12T05:21:33.555Z,5.18
2018-01-12T05:22:33.566Z,5.19
2018-01-12T05:23:32.927Z,5.14
2018-01-12T05:24:33.240Z,5.11
2018-01-12T05:25:33.657Z,5.1
2018-01-12T05:26:33.276Z,5.11
2018-01-12T05:27:33.577Z,5.06
2018-01-12T05:28:32.860Z,5.07
2018-01-12T05:29:33.132Z,5.07
2018-01-12T05:30:33.340Z,5.04
2018-01-12T05:31:33.774Z,5.03
2018-01-12T05:32:32.961Z,5.04
2018-01-12T05:33:33.291Z,5.06
2018-01-12T05:34:33.576Z,5.04
2018-01-12T05:35:32.920Z,5.06
2018-01-12T05:36:33.117Z,5.02
2018-01-12T05:37:33.648Z,5.02
2018-01-12T05:38:32.962Z,5.02
2018-01-12T05:39:33.494Z,5.02
2018-01-12T05:40:32.735Z,5.02
2018-01-12T05:41:33.097Z,5.01
2018-01-12T05:42:33.583Z,5
2018-01-12T05:43:32.972Z,5
2018-01-12T05:44:33.351Z,4.99
2018-01-12T05:45:33.590Z,5
2018-01-12T05:46:32.737Z,5
2018-01-12T05:47:33.396Z,5.02
2018-01-12T05:48:33.319Z,5.03
2018-01-12T05:49:33.618Z,5.03
2018-01-12T05:50:32.880Z,5.03
2018-01-12T05:51:33.110Z,5.04
2018-01-12T05:52:33.377Z,5.05
2018-01-12T05:53:33.760Z,5.02
2018-01-12T05:54:32.892Z,5.03
2018-01-12T05:55:33.188Z,5.02
2018-01-12T05:56:33.591Z,5.05
2018-01-12T05:57:33.073Z,5.04
2018-01-12T05:58:33.241Z,5.03
2018-01-12T05:59:33.581Z,5.02
2018-01-12T06:00:32.871Z,5.02
2018-01-12T06:01:33.346Z,5.02
2018-01-12T06:02:33.520Z,5.03
2018-01-12T06:03:33.875Z,5.04
2018-01-12T06:04:33.105Z,5.04
2018-01-12T06:05:33.394Z,5.04
2018-01-12T06:06:33.606Z,5
2018-01-12T06:07:32.792Z,5.03
2018-01-12T06:08:33.556Z,5.01
2018-01-12T06:09:33.050Z,5
2018-01-12T06:10:33.193Z,5
2018-01-12T06:11:33.368Z,5
2018-01-12T06:12:33.945Z,4.99
2018-01-12T06:13:33.399Z,4.97
2018-01-12T06:14:33.802Z,5
2018-01-12T06:15:32.934Z,4.96
2018-01-12T06:16:33.263Z,4.94
2018-01-12T06:17:32.829Z,4.94
2018-01-12T06:18:33.241Z,4.94
2018-01-12T06:19:32.571Z,4.95
2018-01-12T06:20:32.872Z,4.94
2018-01-12T06:21:33.121Z,4.95
2018-01-12T06:22:32.245Z,4.97
2018-01-12T06:23:32.643Z,5.03
2018-01-12T06:24:33.102Z,5.02
2018-01-12T06:25:32.495Z,5.04
2018-01-12T06:26:32.885Z,5.02
2018-01-12T06:27:33.018Z,5.07
2018-01-12T06:28:33.255Z,5.05
2018-01-12T06:29:32.351Z,5.06
2018-01-12T06:30:32.631Z,5.07
2018-01-12T06:31:33.188Z,5.03
2018-01-12T06:32:32.424Z,5.04
2018-01-12T06:33:32.753Z,5.05
2018-01-12T06:34:32.879Z,5.06
2018-01-12T06:35:33.311Z,5.05
2018-01-12T06:36:32.684Z,5.07
2018-01-12T06:37:32.734Z,5.08
2018-01-12T06:38:33.019Z,5.07
2018-01-12T06:39:33.046Z,5.07
2018-01-12T06:40:33.224Z,5.07
2018-01-12T06:41:32.603Z,5.07
2018-01-12T06:42:32.837Z,5.08
2018-01-12T06:43:33.212Z,5.06
2018-01-12T06:44:32.376Z,5.07
2018-01-12T06:45:32.578Z,5.07
2018-01-12T06:46:32.749Z,5.06
2018-01-12T06:47:33.536Z,5.08
2018-01-12T06:48:32.944Z,5.07
2018-01-12T06:49:32.386Z,5.06
2018-01-12T06:50:32.505Z,5.05
2018-01-12T06:51:32.722Z,5.04
2018-01-12T06:52:32.204Z,5.07
2018-01-12T06:53:32.677Z,5.07
2018-01-12T06:54:32.906Z,5.06
2018-01-12T06:55:32.058Z,5.06
2018-01-12T06:56:32.399Z,5.07
2018-01-12T06:57:32.519Z,5.08
2018-01-12T06:58:32.676Z,5.08
2018-01-12T06:59:33.131Z,5.08
2018-01-12T07:00:32.450Z,5.07
2018-01-12T07:01:32.644Z,5.07
2018-01-12T07:02:32.993Z,5.08
2018-01-12T07:03:32.502Z,5.11
2018-01-12T07:04:33.128Z,5.09
2018-01-12T07:05:32.618Z,5.11
2018-01-12T07:06:33.151Z,5.08
2018-01-12T07:07:32.550Z,5.08
2018-01-12T07:08:32.851Z,5.08
2018-01-12T07:09:32.165Z,5.09
2018-01-12T07:10:32.348Z,5.09
2018-01-12T07:11:32.653Z,5.11
2018-01-12T07:12:33.105Z,5.09
2018-01-12T07:13:32.348Z,5.11
2018-01-12T07:14:32.774Z,5.1
2018-01-12T07:15:33.113Z,5.07
2018-01-12T07:16:32.337Z,5.06
2018-01-12T07:17:33.080Z,5.04
2018-01-12T07:18:32.697Z,5.06
2018-01-12T07:19:33.181Z,5.07
2018-01-12T07:20:32.590Z,5.06
2018-01-12T07:21:33.004Z,5.05
2018-01-12T07:22:33.583Z,5.08
2018-01-12T07:23:33.135Z,5.08
2018-01-12T07:24:33.445Z,5.08
2018-01-12T07:25:32.833Z,5.07
2018-01-12T07:26:33.193Z,5.08
2018-01-12T07:27:34.603Z,5.06
2018-01-12T07:28:32.948Z,5.07
2018-01-12T07:29:33.400Z,5.06
2018-01-12T07:30:32.769Z,5.05
2018-01-12T07:31:32.898Z,5.07
2018-01-12T07:32:33.502Z,5.05
2018-01-12T07:33:32.911Z,5.06
2018-01-12T07:34:33.208Z,5.05
2018-01-12T07:35:32.596Z,5.08
2018-01-12T07:36:33.137Z,5.09
2018-01-12T07:37:33.363Z,5.08
2018-01-12T07:38:32.720Z,5.08
2018-01-12T07:39:33.163Z,5.06
2018-01-12T07:40:33.424Z,5.07
2018-01-12T07:41:32.733Z,5.04
2018-01-12T07:42:33.094Z,5.07
2018-01-12T07:43:33.493Z,5.04
2018-01-12T07:44:32.962Z,5.06
2018-01-12T07:45:33.170Z,5.07
2018-01-12T07:46:33.595Z,5.07
2018-01-12T07:47:32.961Z,5.08
2018-01-12T07:48:33.449Z,5.08
2018-01-12T07:49:32.915Z,5.09
2018-01-12T07:50:33.205Z,5.04
2018-01-12T07:51:32.536Z,5.07
2018-01-12T07:52:33.727Z,5.08
2018-01-12T07:53:32.902Z,5.08
2018-01-12T07:54:33.434Z,5.08
2018-01-12T07:55:32.972Z,5.09
2018-01-12T07:56:32.446Z,5.09
2018-01-12T07:57:32.355Z,5.09
2018-01-12T07:58:32.651Z,5.09
2018-01-12T07:59:32.966Z,5.1
2018-01-12T08:00:33.128Z,5.13
2018-01-12T08:01:32.427Z,5.12
2018-01-12T08:02:32.602Z,5.14
2018-01-12T08:03:32.906Z,5.12
2018-01-12T08:04:33.319Z,5.12
2018-01-12T08:05:32.452Z,5.13
2018-01-12T08:06:32.702Z,5.13
2018-01-12T08:07:32.920Z,5.12
2018-01-12T08:08:33.287Z,5.11
2018-01-12T08:09:32.829Z,5.12
2018-01-12T08:10:33.150Z,5.13
2018-01-12T08:11:33.189Z,5.12
2018-01-12T08:12:32.586Z,5.12
2018-01-12T08:13:32.977Z,5.13
2018-01-12T08:14:33.232Z,5.11
2018-01-12T08:15:32.540Z,5.1
2018-01-12T08:16:33.200Z,5.13
2018-01-12T08:17:32.474Z,5.1
2018-01-12T08:18:32.777Z,5.13
2018-01-12T08:19:33.086Z,5.12
2018-01-12T08:20:32.722Z,5.13
2018-01-12T08:21:33.165Z,5.1
2018-01-12T08:22:32.548Z,5.11
2018-01-12T08:23:32.868Z,5.12
2018-01-12T08:24:32.012Z,5.12
2018-01-12T08:25:32.329Z,5.14
2018-01-12T08:26:32.637Z,5.14
2018-01-12T08:27:33.183Z,5.15
2018-01-12T08:28:32.578Z,5.13
2018-01-12T08:29:32.657Z,5.13
2018-01-12T08:30:33.010Z,5.15
2018-01-12T08:31:32.431Z,5.16
2018-01-12T08:32:32.838Z,5.15
2018-01-12T08:33:32.400Z,5.19
2018-01-12T08:34:32.757Z,5.19
2018-01-12T08:35:33.351Z,5.2
2018-01-12T08:36:32.595Z,5.2
2018-01-12T08:37:32.810Z,5.24
2018-01-12T08:38:33.235Z,5.22
2018-01-12T08:39:32.656Z,5.23
2018-01-12T08:40:32.990Z,5.22
2018-01-12T08:41:32.731Z,5.22
2018-01-12T08:42:32.292Z,5.23
2018-01-12T08:43:32.529Z,5.23
2018-01-12T08:44:32.759Z,5.24
2018-01-12T08:45:32.987Z,5.22
2018-01-12T08:46:32.169Z,5.25
2018-01-12T08:47:32.465Z,5.22
2018-01-12T08:48:32.809Z,5.25
2018-01-12T08:49:33.777Z,5.24
2018-01-12T08:50:33.339Z,5.25
2018-01-12T08:51:32.839Z,5.25
2018-01-12T08:52:32.388Z,5.26
2018-01-12T08:53:32.620Z,5.27
2018-01-12T08:54:32.836Z,5.28
2018-01-12T08:55:32.268Z,5.3
2018-01-12T08:56:32.454Z,5.3
2018-01-12T08:57:32.756Z,5.31
2018-01-12T08:58:33.182Z,5.3
2018-01-12T08:59:32.501Z,5.31
2018-01-12T09:00:33.020Z,5.32
2018-01-12T09:01:32.476Z,5.28
2018-01-12T09:02:32.687Z,5.29
2018-01-12T09:03:33.173Z,5.28
2018-01-12T09:04:32.378Z,5.3
2018-01-12T09:05:32.793Z,5.29
2018-01-12T09:06:34.119Z,5.29
2018-01-12T09:07:32.378Z,5.32
2018-01-12T09:08:32.762Z,5.3
2018-01-12T09:09:32.913Z,5.32
2018-01-12T09:10:32.363Z,5.33
2018-01-12T09:11:32.473Z,5.33
2018-01-12T09:12:32.692Z,5.32
2018-01-12T09:13:32.912Z,5.36
2018-01-12T09:14:32.415Z,5.34
2018-01-12T09:15:32.615Z,5.37
2018-01-12T09:16:32.839Z,5.38
2018-01-12T09:17:33.211Z,5.38
2018-01-12T09:18:32.491Z,5.39
2018-01-12T09:19:32.916Z,5.41
2018-01-12T09:20:32.308Z,5.44
2018-01-12T09:21:32.745Z,5.45
2018-01-12T09:22:33.035Z,5.45
2018-01-12T09:23:33.256Z,5.44
2018-01-12T09:24:33.422Z,5.45
2018-01-12T09:25:32.820Z,5.45
2018-01-12T09:26:32.984Z,5.45
2018-01-12T09:27:33.276Z,5.45
2018-01-12T09:28:33.579Z,5.47
2018-01-12T09:29:32.858Z,5.53
2018-01-12T09:30:33.216Z,5.55
2018-01-12T09:31:33.646Z,5.56
2018-01-12T09:32:33.037Z,5.56
2018-01-12T09:33:33.296Z,5.56
2018-01-12T09:34:33.608Z,5.56
2018-01-12T09:35:33.074Z,5.56
2018-01-12T09:36:33.284Z,5.6
2018-01-12T09:37:33.679Z,5.63
2018-01-12T09:38:33.055Z,5.68
2018-01-12T09:39:33.236Z,5.68
2018-01-12T09:40:33.409Z,5.68
2018-01-12T09:41:33.774Z,5.64
2018-01-12T09:42:33.091Z,5.67
2018-01-12T09:43:33.384Z,5.69
2018-01-12T09:44:33.780Z,5.66
2018-01-12T09:45:33.312Z,5.71
2018-01-12T09:46:32.772Z,5.73
2018-01-12T09:47:32.970Z,5.76
2018-01-12T09:48:33.104Z,5.79
2018-01-12T09:49:33.560Z,5.82
2018-01-12T09:50:32.932Z,5.87
2018-01-12T09:51:33.493Z,5.89
2018-01-12T09:52:32.843Z,5.91
2018-01-12T09:53:33.216Z,5.77
2018-01-12T09:54:32.664Z,5.78
2018-01-12T09:55:33.195Z,5.77
2018-01-12T09:56:32.827Z,5.79
2018-01-12T09:57:33.089Z,5.79
2018-01-12T09:58:32.369Z,5.76
2018-01-12T09:59:32.704Z,5.78
2018-01-12T10:00:33.178Z,5.75
2018-01-12T10:01:35.278Z,5.73
2018-01-12T10:02:33.222Z,5.73
2018-01-12T10:03:34.433Z,5.74
2018-01-12T10:04:32.610Z,5.74
2018-01-12T10:05:35.913Z,5.75
2018-01-12T10:06:34.403Z,5.76
2018-01-12T10:07:34.412Z,5.77
2018-01-12T10:08:32.435Z,5.81
2018-01-12T10:09:33.472Z,5.78
2018-01-12T10:10:34.707Z,5.81
2018-01-12T10:11:34.455Z,5.79
2018-01-12T10:12:34.708Z,5.81
2018-01-12T10:13:37.577Z,5.8
2018-01-12T10:14:36.430Z,5.81
2018-01-12T10:15:32.834Z,5.84
2018-01-12T10:16:33.314Z,5.83
2018-01-12T10:17:33.007Z,5.86
2018-01-12T10:18:32.432Z,5.85
2018-01-12T10:19:32.643Z,5.88
2018-01-12T10:20:33.731Z,5.88
2018-01-12T10:21:33.449Z,5.89
2018-01-12T10:22:33.016Z,5.89
2018-01-12T10:23:33.743Z,5.88
2018-01-12T10:24:32.939Z,5.89
2018-01-12T10:25:33.979Z,5.88
2018-01-12T10:26:34.308Z,5.88
2018-01-12T10:27:33.886Z,5.89
2018-01-12T10:28:33.192Z,5.87
2018-01-12T10:29:34.284Z,5.88
2018-01-12T10:30:33.816Z,5.89
2018-01-12T10:31:33.913Z,5.87
2018-01-12T10:32:33.189Z,5.88
2018-01-12T10:33:33.521Z,5.85
2018-01-12T10:34:33.930Z,5.86
2018-01-12T10:35:33.241Z,5.84
2018-01-12T10:36:33.546Z,5.88
2018-01-12T10:37:33.635Z,5.89
2018-01-12T10:38:32.948Z,5.9
2018-01-12T10:39:33.326Z,5.91
2018-01-12T10:40:33.869Z,5.87
2018-01-12T10:41:33.283Z,5.87
2018-01-12T10:42:33.731Z,5.85
2018-01-12T10:43:33.188Z,5.89
2018-01-12T10:44:33.589Z,5.9
2018-01-12T10:45:32.802Z,5.93
2018-01-12T10:46:33.197Z,5.95
2018-01-12T10:47:33.408Z,5.95
2018-01-12T10:48:33.940Z,5.96
2018-01-12T10:49:33.610Z,5.97
2018-01-12T10:50:33.029Z,5.99
2018-01-12T10:51:33.425Z,5.98
2018-01-12T10:52:33.485Z,6.02
2018-01-12T10:53:32.606Z,6.03
2018-01-12T10:54:32.962Z,6.06
2018-01-12T10:55:33.370Z,6.02
2018-01-12T10:56:33.594Z,6.01
2018-01-12T10:57:33.008Z,6.02
2018-01-12T10:58:33.249Z,6.03
2018-01-12T10:59:33.609Z,6.07
2018-01-12T11:00:33.021Z,6.06
2018-01-12T11:01:33.303Z,6.06
2018-01-12T11:02:33.623Z,6.08
2018-01-12T11:03:32.889Z,6.12
2018-01-12T11:04:33.001Z,6.11
2018-01-12T11:05:33.324Z,6.13
2018-01-12T11:06:33.618Z,6.13
2018-01-12T11:07:32.927Z,6.15
2018-01-12T11:08:33.056Z,6.15
2018-01-12T11:09:33.130Z,6.15
2018-01-12T11:10:33.944Z,6.16
2018-01-12T11:11:33.316Z,6.18
2018-01-12T11:12:33.689Z,6.18
2018-01-12T11:13:33.103Z,6.19
2018-01-12T11:14:33.378Z,6.21
2018-01-12T11:15:33.707Z,6.21
2018-01-12T11:16:33.070Z,6.22
2018-01-12T11:17:33.170Z,6.25
2018-01-12T11:18:33.622Z,6.26
2018-01-12T11:19:32.930Z,6.27
2018-01-12T11:20:33.114Z,6.28
2018-01-12T11:21:33.219Z,6.29
2018-01-12T11:22:33.585Z,6.3
2018-01-12T11:23:33.503Z,6.32
2018-01-12T11:24:33.626Z,6.33
2018-01-12T11:25:32.876Z,6.35
2018-01-12T11:26:33.183Z,6.38
2018-01-12T11:27:33.493Z,6.39
2018-01-12T11:28:33.732Z,6.42
2018-01-12T11:29:32.808Z,6.41
2018-01-12T11:30:33.066Z,6.41
2018-01-12T11:31:33.723Z,6.43
2018-01-12T11:32:33.183Z,6.4
2018-01-12T11:33:33.531Z,6.42
2018-01-12T11:34:33.635Z,6.4
2018-01-12T11:35:32.845Z,6.4
2018-01-12T11:36:33.255Z,6.38
2018-01-12T11:37:33.719Z,6.4
2018-01-12T11:38:32.905Z,6.4
2018-01-12T11:39:33.087Z,6.44
2018-01-12T11:40:33.194Z,6.41
2018-01-12T11:41:33.359Z,6.4
2018-01-12T11:42:33.513Z,6.39
2018-01-12T11:43:33.077Z,6.38
2018-01-12T11:44:33.380Z,6.38
2018-01-12T11:45:33.550Z,6.39
2018-01-12T11:46:32.700Z,6.39
2018-01-12T11:47:32.863Z,6.4
2018-01-12T11:48:33.338Z,6.39
2018-01-12T11:49:33.410Z,6.4
2018-01-12T11:50:33.630Z,6.4
2018-01-12T11:51:32.944Z,6.38
2018-01-12T11:52:33.204Z,6.37
2018-01-12T11:53:33.601Z,6.33
2018-01-12T11:54:33.061Z,6.33
2018-01-12T11:55:33.163Z,6.33
2018-01-12T11:56:33.450Z,6.33
2018-01-12T11:57:32.741Z,6.34
2018-01-12T11:58:33.040Z,6.36
2018-01-12T11:59:33.288Z,6.39
2018-01-12T12:00:32.462Z,6.4
2018-01-12T12:01:32.664Z,6.42
2018-01-12T12:02:32.865Z,6.44
2018-01-12T12:03:33.435Z,6.46
2018-01-12T12:04:32.878Z,6.51
2018-01-12T12:05:33.349Z,6.53
2018-01-12T12:06:32.727Z,6.57
2018-01-12T12:07:32.987Z,6.6
2018-01-12T12:08:33.761Z,6.66
2018-01-12T12:09:32.961Z,6.7
2018-01-12T12:10:33.210Z,6.75
2018-01-12T12:11:33.361Z,6.78
2018-01-12T12:12:32.786Z,6.84
2018-01-12T12:13:33.174Z,6.84
2018-01-12T12:14:33.586Z,6.84
2018-01-12T12:15:33.071Z,6.88
2018-01-12T12:16:33.600Z,6.92
2018-01-12T12:17:33.340Z,6.96
2018-01-12T12:18:33.318Z,7
2018-01-12T12:19:32.727Z,7
2018-01-12T12:20:33.149Z,7.02
2018-01-12T12:21:35.706Z,7.01
2018-01-12T12:22:32.894Z,7.04
2018-01-12T12:23:33.229Z,7.08
2018-01-12T12:24:36.944Z,7.07
2018-01-12T12:25:34.759Z,7.06
2018-01-12T12:26:33.776Z,7.03
2018-01-12T12:27:33.194Z,7.02
2018-01-12T12:28:33.597Z,7.01
2018-01-12T12:29:33.541Z,6.98
2018-01-12T12:30:32.905Z,6.96
2018-01-12T12:31:33.436Z,6.94
2018-01-12T12:33:34.420Z,6.94
2018-01-12T12:34:33.782Z,6.95
2018-01-12T12:35:33.964Z,6.95
2018-01-12T12:36:33.554Z,6.95
2018-01-12T12:37:32.891Z,6.97
2018-01-12T12:38:33.998Z,6.96
2018-01-12T12:39:33.351Z,6.96
2018-01-12T12:40:33.753Z,6.94
2018-01-12T12:41:34.518Z,6.94
2018-01-12T12:42:35.973Z,6.95
2018-01-12T12:43:33.370Z,7.01
2018-01-12T12:44:33.700Z,6.99
2018-01-12T12:45:33.382Z,6.99
2018-01-12T12:46:34.139Z,6.99
2018-01-12T12:47:33.096Z,6.94
2018-01-12T12:48:33.445Z,6.93
2018-01-12T12:49:34.313Z,6.92
2018-01-12T12:50:33.665Z,6.87
2018-01-12T12:51:32.963Z,6.87
2018-01-12T12:52:33.351Z,6.87
2018-01-12T12:53:33.790Z,6.87
2018-01-12T12:54:33.251Z,6.85
2018-01-12T12:55:33.760Z,6.88
2018-01-12T12:56:33.088Z,6.83
2018-01-12T12:57:33.320Z,6.86
2018-01-12T12:58:33.048Z,6.83
2018-01-12T12:59:34.409Z,6.85
2018-01-12T13:00:32.852Z,6.84
2018-01-12T13:01:33.302Z,6.84
2018-01-12T13:02:34.226Z,6.84
2018-01-12T13:03:33.457Z,6.83
2018-01-12T13:04:32.860Z,6.84
2018-01-12T13:05:33.267Z,6.85
2018-01-12T13:06:33.507Z,6.87
2018-01-12T13:07:32.763Z,6.84
2018-01-12T13:08:33.180Z,6.85
2018-01-12T13:09:44.399Z,6.83
2018-01-12T13:10:35.794Z,6.83
2018-01-12T13:11:38.696Z,6.85
2018-01-12T13:12:36.973Z,6.85
2018-01-12T13:13:36.174Z,6.87
2018-01-12T13:14:35.860Z,6.88
2018-01-12T13:15:33.274Z,6.88
2018-01-12T13:16:33.618Z,6.88
2018-01-12T13:17:32.924Z,6.86
2018-01-12T13:18:35.556Z,6.88
2018-01-12T13:19:33.028Z,6.86
2018-01-12T13:20:34.039Z,6.86
2018-01-12T13:21:33.384Z,6.89
2018-01-12T13:22:32.715Z,6.88
2018-01-12T13:23:32.836Z,6.88
2018-01-12T13:24:33.196Z,6.84